createdAt,value
2023-05-04T00:02:18.282Z,102136.72
2023-05-04T00:04:45.283Z,102141.34
2023-05-04T00:07:12.148Z,102136.75
2023-05-04T00:09:39.041Z,102141.63
2023-05-04T00:12:06.676Z,102138.09
2023-05-04T00:14:33.358Z,102141.97
2023-05-04T00:17:00.079Z,102135.59
2023-05-04T00:19:26.862Z,102137.84
2023-05-04T00:21:53.526Z,102130.16
2023-05-04T00:24:20.215Z,102123.81
2023-05-04T00:26:46.859Z,102130.59
2023-05-04T00:29:13.536Z,102122.78
2023-05-04T00:31:40.206Z,102121.75
2023-05-04T00:34:07.293Z,102121.63
2023-05-04T00:36:34.235Z,102107.59
2023-05-04T00:39:00.901Z,102114.66
2023-05-04T00:41:27.606Z,102113.63
2023-05-04T00:43:54.285Z,102118.53
2023-05-04T00:46:20.930Z,102110.84
2023-05-04T00:48:50.060Z,102112.47
2023-05-04T00:51:19.172Z,102116.63
2023-05-04T00:53:46.027Z,102108.78
2023-05-04T00:56:13.616Z,102107.00
2023-05-04T00:58:40.271Z,102107.63
2023-05-04T01:01:07.258Z,102107.31
2023-05-04T01:03:34.139Z,102101.25
2023-05-04T01:06:16.155Z,102106.44
2023-05-04T01:08:54.709Z,102100.53
2023-05-04T01:11:27.630Z,102102.00
2023-05-04T01:13:56.412Z,102090.75
2023-05-04T01:16:23.286Z,102095.78
2023-05-04T01:18:49.992Z,102097.28
2023-05-04T01:21:16.644Z,102094.63
2023-05-04T01:23:43.357Z,102096.84
2023-05-04T01:26:22.885Z,102098.47
2023-05-04T01:28:53.900Z,102095.97
2023-05-04T01:31:23.294Z,102089.91
2023-05-04T01:33:52.937Z,102093.28
2023-05-04T01:36:23.035Z,102090.66
2023-05-04T01:38:53.294Z,102093.00
2023-05-04T01:41:19.956Z,102085.31
2023-05-04T01:43:46.813Z,102092.59
2023-05-04T01:46:13.680Z,102085.31
2023-05-04T01:48:40.663Z,102082.53
2023-05-04T01:51:07.316Z,102083.56
2023-05-04T01:53:33.992Z,102085.63
2023-05-04T01:56:01.183Z,102086.69
2023-05-04T01:58:27.881Z,102089.03
2023-05-04T02:00:54.693Z,102091.13
2023-05-04T02:03:21.516Z,102090.09
2023-05-04T02:05:48.256Z,102089.94
2023-05-04T02:08:14.916Z,102085.66
2023-05-04T02:10:41.620Z,102083.75
2023-05-04T02:13:08.368Z,102079.16
2023-05-04T02:15:35.061Z,102083.00
2023-05-04T02:18:01.953Z,102081.84
2023-05-04T02:20:28.635Z,102058.19
2023-05-04T02:22:55.275Z,102066.16
2023-05-04T02:25:23.269Z,102055.69
2023-05-04T02:27:49.945Z,102063.66
2023-05-04T02:30:16.678Z,102062.78
2023-05-04T02:32:43.384Z,102059.81
2023-05-04T02:35:10.228Z,102059.38
2023-05-04T02:37:36.905Z,102051.53
2023-05-04T02:40:04.482Z,102057.00
2023-05-04T02:42:31.795Z,102055.25
2023-05-04T02:44:58.459Z,102055.25
2023-05-04T02:47:25.156Z,102051.69
2023-05-04T02:49:51.841Z,102046.66
2023-05-04T02:52:18.543Z,102055.09
2023-05-04T02:54:45.937Z,102052.28
2023-05-04T02:57:12.654Z,102056.56
2023-05-04T02:59:39.308Z,102054.94
2023-05-04T03:02:06.067Z,102057.16
2023-05-04T03:04:32.777Z,102058.78
2023-05-04T03:06:59.433Z,102058.19
2023-05-04T03:09:26.123Z,102059.81
2023-05-04T03:11:52.791Z,102057.00
2023-05-04T03:14:19.452Z,102051.97
2023-05-04T03:16:46.186Z,102049.34
2023-05-04T03:19:12.878Z,102045.78
2023-05-04T03:21:39.643Z,102029.09
2023-05-04T03:24:06.642Z,102031.16
2023-05-04T03:26:33.291Z,102038.09
2023-05-04T03:28:59.999Z,102039.72
2023-05-04T03:31:27.017Z,102037.94
2023-05-04T03:33:53.718Z,102035.44
2023-05-04T03:36:20.494Z,102034.72
2023-05-04T03:38:47.178Z,102031.44
2023-05-04T03:41:13.897Z,102024.81
2023-05-04T03:43:40.575Z,102022.44
2023-05-04T03:46:07.333Z,102022.44
2023-05-04T03:48:34.143Z,102017.28
2023-05-04T03:51:00.879Z,102020.06
2023-05-04T03:53:27.595Z,102012.53
2023-05-04T03:55:54.252Z,102013.56
2023-05-04T03:58:21.054Z,102005.72
2023-05-04T04:00:47.758Z,102008.53
2023-05-04T04:03:15.126Z,102011.31
2023-05-04T04:05:41.994Z,102008.22
2023-05-04T04:08:08.697Z,102011.91
2023-05-04T04:10:35.621Z,102006.00
2023-05-04T04:13:02.459Z,102011.59
2023-05-04T04:15:29.150Z,102006.88
2023-05-04T04:17:55.936Z,102010.09
2023-05-04T04:20:22.793Z,102013.78
2023-05-04T04:22:49.852Z,102012.72
2023-05-04T04:25:16.564Z,102014.91
2023-05-04T04:27:43.223Z,101992.19
2023-05-04T04:30:10.742Z,102024.47
2023-05-04T04:32:37.593Z,102018.38
2023-05-04T04:35:04.788Z,102026.78
2023-05-04T04:37:31.447Z,102020.97
2023-05-04T04:39:58.201Z,102021.66
2023-05-04T04:42:24.900Z,102021.88
2023-05-04T04:44:52.235Z,102027.13
2023-05-04T04:47:18.892Z,102036.84
2023-05-04T04:49:45.531Z,102028.88
2023-05-04T04:52:12.512Z,102032.50
2023-05-04T04:54:39.191Z,102036.97
2023-05-04T04:57:06.156Z,102020.66
2023-05-04T04:59:32.848Z,102030.75
2023-05-04T05:02:00.438Z,102020.44
2023-05-04T05:04:27.233Z,102028.03
2023-05-04T05:06:54.124Z,102029.19
2023-05-04T05:09:21.090Z,102020.75
2023-05-04T05:11:47.750Z,102024.63
2023-05-04T05:14:14.403Z,102025.66
2023-05-04T05:16:41.279Z,102026.03
2023-05-04T05:19:07.949Z,102027.06
2023-05-04T05:21:34.602Z,102032.50
2023-05-04T05:24:01.737Z,102033.91
2023-05-04T05:26:28.429Z,102033.84
2023-05-04T05:28:55.093Z,102034.38
2023-05-04T05:31:22.053Z,102029.09
2023-05-04T05:33:48.917Z,102029.19
2023-05-04T05:36:15.637Z,102030.69
2023-05-04T05:38:42.323Z,102033.78
2023-05-04T05:41:09.756Z,102037.19
2023-05-04T05:43:38.508Z,102031.63
2023-05-04T05:46:06.287Z,102038.09
2023-05-04T05:48:33.409Z,102036.06
2023-05-04T05:51:00.203Z,102044.41
2023-05-04T05:53:26.988Z,102035.44
2023-05-04T05:55:53.757Z,102036.84
2023-05-04T05:58:20.418Z,102034.19
2023-05-04T06:00:48.044Z,102050.31
2023-05-04T06:03:14.877Z,102044.59
2023-05-04T06:05:41.590Z,102047.34
2023-05-04T06:08:08.286Z,102040.25
2023-05-04T06:10:35.027Z,102038.69
2023-05-04T06:13:01.924Z,102036.34
2023-05-04T06:15:28.659Z,102034.66
2023-05-04T06:17:55.428Z,102027.06
2023-05-04T06:20:22.865Z,102020.97
2023-05-04T06:22:49.565Z,102021.09
2023-05-04T06:25:16.375Z,102016.38
2023-05-04T06:27:43.233Z,102013.75
2023-05-04T06:30:10.451Z,102007.53
2023-05-04T06:32:37.515Z,102011.22
2023-05-04T06:35:05.033Z,102001.31
2023-05-04T06:37:32.224Z,102001.63
2023-05-04T06:39:58.932Z,101999.88
2023-05-04T06:42:30.415Z,102000.88
2023-05-04T06:44:58.211Z,101997.38
2023-05-04T06:47:25.057Z,101999.75
2023-05-04T06:49:51.814Z,101992.34
2023-05-04T06:52:18.460Z,102002.09
2023-05-04T06:54:45.133Z,102001.03
2023-05-04T06:57:11.973Z,102004.88
2023-05-04T06:59:38.666Z,102004.97
2023-05-04T07:02:05.457Z,102001.91
2023-05-04T07:04:32.145Z,101996.16
2023-05-04T07:06:58.818Z,101999.03
2023-05-04T07:09:26.026Z,101989.81
2023-05-04T07:11:52.739Z,101991.53
2023-05-04T07:14:19.422Z,101987.38
2023-05-04T07:16:46.236Z,101990.22
2023-05-04T07:19:13.152Z,101994.50
2023-05-04T07:21:39.852Z,101993.81
2023-05-04T07:24:07.318Z,101992.22
2023-05-04T07:26:34.067Z,101989.03
2023-05-04T07:29:00.947Z,101978.78
2023-05-04T07:31:30.086Z,101988.38
2023-05-04T07:33:57.239Z,101981.16
2023-05-04T07:36:26.491Z,101983.44
2023-05-04T07:38:54.115Z,101974.13
2023-05-04T07:41:20.820Z,101966.44
2023-05-04T07:43:47.448Z,101977.66
2023-05-04T07:46:13.969Z,101965.38
2023-05-04T07:48:40.451Z,101964.63
2023-05-04T07:51:13.969Z,101961.78
2023-05-04T07:53:40.799Z,101957.41
2023-05-04T07:56:08.901Z,101957.44
2023-05-04T07:58:35.500Z,101955.19
2023-05-04T08:01:02.193Z,101957.72
2023-05-04T08:03:30.458Z,101956.22
2023-05-04T08:05:56.946Z,101952.69
2023-05-04T08:08:23.619Z,101955.72
2023-05-04T08:10:50.145Z,101955.78
2023-05-04T08:13:16.819Z,101948.91
2023-05-04T08:15:43.755Z,101950.13
2023-05-04T08:18:10.713Z,101941.88
2023-05-04T08:20:37.267Z,101940.47
2023-05-04T08:23:04.814Z,101937.22
2023-05-04T08:25:31.440Z,101923.41
2023-05-04T08:27:58.010Z,101932.06
2023-05-04T08:30:24.731Z,101923.28
2023-05-04T08:32:52.885Z,101917.94
2023-05-04T08:35:19.469Z,101920.66
2023-05-04T08:37:45.932Z,101909.81
2023-05-04T08:40:12.842Z,101908.72
2023-05-04T08:42:40.324Z,101906.53
2023-05-04T08:45:07.573Z,101903.28
2023-05-04T08:47:34.408Z,101904.91
2023-05-04T08:50:01.102Z,101899.53
2023-05-04T08:52:28.384Z,101898.59
2023-05-04T08:54:56.699Z,101905.78
2023-05-04T08:57:24.799Z,101897.50
2023-05-04T08:59:53.605Z,101892.41
2023-05-04T09:02:22.382Z,101887.69
2023-05-04T09:04:49.801Z,101886.88
2023-05-04T09:07:18.379Z,101891.34
2023-05-04T09:09:45.402Z,101885.19
2023-05-04T09:12:12.479Z,101871.50
2023-05-04T09:14:39.168Z,101874.13
2023-05-04T09:17:14.332Z,101869.75
2023-05-04T09:19:43.816Z,101878.25
2023-05-04T09:22:17.666Z,101871.41
2023-05-04T09:24:47.324Z,101874.47
2023-05-04T09:27:16.054Z,101878.78
2023-05-04T09:29:42.985Z,101880.09
2023-05-04T09:32:15.167Z,101885.31
2023-05-04T09:35:10.735Z,101887.72
2023-05-04T09:37:47.047Z,101878.34
2023-05-04T09:40:14.449Z,101871.41
2023-05-04T09:42:41.127Z,101875.34
2023-05-04T09:45:09.959Z,101879.84
2023-05-04T09:47:39.153Z,101880.38
2023-05-04T09:50:20.725Z,101874.75
2023-05-04T09:52:49.245Z,101871.78
2023-05-04T09:55:20.540Z,101867.94
2023-05-04T09:57:48.902Z,101863.44
2023-05-04T10:00:17.282Z,101865.72
2023-05-04T10:02:45.323Z,101863.81
2023-05-04T10:05:16.690Z,101868.00
2023-05-04T10:07:46.449Z,101864.34
2023-05-04T10:10:14.604Z,101859.28
2023-05-04T10:12:41.386Z,101852.88
2023-05-04T10:15:10.164Z,101856.72
2023-05-04T10:17:53.676Z,101844.75
2023-05-04T10:20:39.638Z,101848.81
2023-05-04T10:23:36.707Z,101838.41
2023-05-04T10:26:25.603Z,101836.56
2023-05-04T10:29:07.831Z,101826.16
2023-05-04T10:31:42.728Z,101833.66
2023-05-04T10:34:10.513Z,101818.22
2023-05-04T10:36:38.425Z,101824.97
2023-05-04T10:39:17.300Z,101817.28
2023-05-04T10:42:04.540Z,101814.25
2023-05-04T10:44:36.193Z,101812.25
2023-05-04T10:47:05.146Z,101796.34
2023-05-04T10:49:32.910Z,101794.31
2023-05-04T10:52:12.802Z,101787.09
2023-05-04T10:54:41.074Z,101780.56
2023-05-04T10:57:13.433Z,101782.78
2023-05-04T10:59:41.273Z,101776.56
2023-05-04T11:02:08.064Z,101779.22
2023-05-04T11:04:36.219Z,101775.53
2023-05-04T11:07:06.779Z,101773.53
2023-05-04T11:12:21.411Z,101771.47
2023-05-04T11:14:48.191Z,101765.41
2023-05-04T11:19:50.802Z,101758.47
2023-05-04T11:22:18.579Z,101741.47
2023-05-04T11:24:46.788Z,101748.56
2023-05-04T11:27:23.569Z,101753.41
2023-05-04T11:29:57.870Z,101755.41
2023-05-04T11:32:38.481Z,101745.88
2023-05-04T11:35:08.708Z,101745.72
2023-05-04T11:37:42.820Z,101747.63
2023-05-04T11:40:22.355Z,101736.13
2023-05-04T11:42:52.410Z,101738.13
2023-05-04T11:45:23.162Z,101746.50
2023-05-04T11:47:51.248Z,101733.38
2023-05-04T11:50:20.392Z,101732.59
2023-05-04T11:52:48.037Z,101728.81
2023-05-04T11:55:28.950Z,101720.50
2023-05-04T11:58:00.091Z,101726.69
2023-05-04T12:00:43.805Z,101722.09
2023-05-04T12:03:15.670Z,101712.75
2023-05-04T12:05:52.750Z,101705.97
2023-05-04T12:08:30.357Z,101705.41
2023-05-04T12:11:10.828Z,101717.94
2023-05-04T12:13:37.692Z,101710.63
2023-05-04T12:16:14.497Z,101710.22
2023-05-04T12:18:42.108Z,101698.97
2023-05-04T12:21:18.965Z,101706.78
2023-05-04T12:23:47.356Z,101697.97
2023-05-04T12:26:17.304Z,101692.91
2023-05-04T12:28:45.639Z,101691.59
2023-05-04T12:31:12.388Z,101678.72
2023-05-04T12:33:39.234Z,101691.59
2023-05-04T12:36:06.674Z,101690.00
2023-05-04T12:38:33.849Z,101682.78
2023-05-04T12:41:04.079Z,101682.34
2023-05-04T12:43:31.415Z,101686.44
2023-05-04T12:45:58.146Z,101678.38
2023-05-04T12:48:29.488Z,101668.84
2023-05-04T12:50:56.237Z,101677.91
2023-05-04T12:53:25.661Z,101665.22
2023-05-04T12:55:52.490Z,101668.06
2023-05-04T12:58:19.390Z,101663.84
2023-05-04T13:00:46.322Z,101648.78
2023-05-04T13:03:13.423Z,101654.00
2023-05-04T13:05:40.296Z,101658.78
2023-05-04T13:08:07.014Z,101652.50
2023-05-04T13:10:33.679Z,101652.59
2023-05-04T13:13:00.977Z,101638.41
2023-05-04T13:15:28.026Z,101644.22
2023-05-04T13:17:54.770Z,101636.78
2023-05-04T13:20:22.540Z,101625.19
2023-05-04T13:22:50.437Z,101622.84
2023-05-04T13:25:17.162Z,101615.09
2023-05-04T13:27:44.059Z,101624.13
2023-05-04T13:30:11.880Z,101629.63
2023-05-04T13:32:38.699Z,101623.66
2023-05-04T13:35:06.032Z,101625.09
2023-05-04T13:37:33.811Z,101614.34
2023-05-04T13:40:01.628Z,101615.84
2023-05-04T13:42:28.406Z,101615.16
2023-05-04T13:44:55.161Z,101603.00
2023-05-04T13:47:23.490Z,101603.88
2023-05-04T13:49:50.474Z,101605.56
2023-05-04T13:52:17.214Z,101595.13
2023-05-04T13:54:44.283Z,101591.69
2023-05-04T13:57:11.101Z,101596.19
2023-05-04T13:59:37.839Z,101586.81
2023-05-04T14:02:04.518Z,101585.16
2023-05-04T14:04:31.713Z,101580.75
2023-05-04T14:06:59.754Z,101573.06
2023-05-04T14:09:26.715Z,101573.13
2023-05-04T14:11:53.857Z,101569.72
2023-05-04T14:14:21.960Z,101567.69
2023-05-04T14:16:48.746Z,101574.63
2023-05-04T14:19:15.575Z,101554.22
2023-05-04T14:21:42.252Z,101564.78
2023-05-04T14:24:08.999Z,101563.31
2023-05-04T14:26:35.676Z,101547.19
2023-05-04T14:29:02.439Z,101546.31
2023-05-04T14:31:29.334Z,101540.34
2023-05-04T14:33:57.023Z,101540.59
2023-05-04T14:36:23.832Z,101533.75
2023-05-04T14:38:50.861Z,101546.53
2023-05-04T14:41:17.582Z,101539.47
2023-05-04T14:43:44.315Z,101540.25
2023-05-04T14:46:12.740Z,101534.28
2023-05-04T14:48:39.671Z,101540.31
2023-05-04T14:51:06.484Z,101536.03
2023-05-04T14:53:36.924Z,101527.34
2023-05-04T14:56:06.312Z,101526.44
2023-05-04T14:58:33.001Z,101525.38
2023-05-04T15:00:59.686Z,101520.84
2023-05-04T15:03:26.856Z,101513.88
2023-05-04T15:05:53.692Z,101512.22
2023-05-04T15:08:20.366Z,101504.41
2023-05-04T15:10:47.087Z,101507.78
2023-05-04T15:13:15.638Z,101511.94
2023-05-04T15:15:42.756Z,101504.25
2023-05-04T15:18:09.841Z,101496.53
2023-05-04T15:20:38.246Z,101495.75
2023-05-04T15:23:10.474Z,101503.59
2023-05-04T15:25:41.160Z,101496.41
2023-05-04T15:28:10.591Z,101488.63
2023-05-04T15:30:41.057Z,101496.31
2023-05-04T15:33:08.324Z,101488.47
2023-05-04T15:35:36.018Z,101485.81
2023-05-04T15:38:03.085Z,101481.53
2023-05-04T15:40:29.884Z,101478.16
2023-05-04T15:42:58.888Z,101480.03
2023-05-04T15:45:25.713Z,101481.78
2023-05-04T15:47:54.084Z,101476.53
2023-05-04T15:50:21.603Z,101469.41
2023-05-04T15:52:49.396Z,101467.44
2023-05-04T15:55:24.503Z,101459.69
2023-05-04T15:57:53.715Z,101468.25
2023-05-04T16:00:21.100Z,101459.34
2023-05-04T16:02:48.097Z,101467.91
2023-05-04T16:05:14.999Z,101460.16
2023-05-04T16:07:41.707Z,101454.25
2023-05-04T16:10:09.729Z,101453.41
2023-05-04T16:12:36.951Z,101462.06
2023-05-04T16:15:04.034Z,101458.69
2023-05-04T16:17:34.877Z,101449.00
2023-05-04T16:20:03.131Z,101445.44
2023-05-04T16:22:30.444Z,101448.00
2023-05-04T16:24:57.273Z,101440.34
2023-05-04T16:27:26.580Z,101435.38
2023-05-04T16:29:53.465Z,101438.16
2023-05-04T16:32:20.847Z,101440.81
2023-05-04T16:34:47.859Z,101431.41
2023-05-04T16:37:15.941Z,101428.97
2023-05-04T16:39:42.593Z,101429.06
2023-05-04T16:42:09.383Z,101421.28
2023-05-04T16:44:36.047Z,101415.81
2023-05-04T16:47:02.802Z,101427.06
2023-05-04T16:49:29.780Z,101425.34
2023-05-04T16:51:57.140Z,101421.84
2023-05-04T16:54:24.081Z,101420.06
2023-05-04T16:56:51.157Z,101418.22
2023-05-04T16:59:17.810Z,101419.94
2023-05-04T17:01:45.058Z,101426.75
2023-05-04T17:04:13.116Z,101424.91
2023-05-04T17:06:39.916Z,101418.84
2023-05-04T17:09:06.985Z,101417.00
2023-05-04T17:11:34.379Z,101412.63
2023-05-04T17:14:01.285Z,101408.97
2023-05-04T17:16:28.073Z,101406.25
2023-05-04T17:18:55.073Z,101413.03
2023-05-04T17:21:21.754Z,101410.13
2023-05-04T17:23:48.465Z,101404.81
2023-05-04T17:26:15.699Z,101407.22
2023-05-04T17:28:42.412Z,101412.03
2023-05-04T17:31:12.461Z,101413.53
2023-05-04T17:33:39.359Z,101413.28
2023-05-04T17:36:07.487Z,101408.00
2023-05-04T17:38:34.151Z,101412.84
2023-05-04T17:41:00.863Z,101411.16
2023-05-04T17:43:27.747Z,101410.97
2023-05-04T17:45:55.805Z,101420.13
2023-05-04T17:48:23.941Z,101418.09
2023-05-04T17:50:51.296Z,101418.84
2023-05-04T17:53:18.243Z,101414.44
2023-05-04T17:55:44.964Z,101411.78
2023-05-04T17:58:11.629Z,101407.44
2023-05-04T18:00:38.381Z,101403.84
2023-05-04T18:03:05.252Z,101415.63
2023-05-04T18:05:32.143Z,101429.03
2023-05-04T18:07:59.023Z,101425.94
2023-05-04T18:10:26.039Z,101429.63
2023-05-04T18:12:52.850Z,101439.06
2023-05-04T18:15:19.707Z,101434.25
2023-05-04T18:17:49.322Z,101437.03
2023-05-04T18:20:16.397Z,101441.59
2023-05-04T18:22:43.060Z,101442.66
2023-05-04T18:25:10.052Z,101442.19
2023-05-04T18:27:36.933Z,101442.63
2023-05-04T18:30:05.236Z,101444.78
2023-05-04T18:32:32.111Z,101449.53
2023-05-04T18:34:58.833Z,101458.56
2023-05-04T18:37:25.658Z,101454.78
2023-05-04T18:39:52.493Z,101465.72
2023-05-04T18:42:19.192Z,101468.59
2023-05-04T18:44:45.901Z,101470.03
2023-05-04T18:47:12.562Z,101468.84
2023-05-04T18:49:39.274Z,101473.88
2023-05-04T18:52:05.981Z,101477.78
2023-05-04T18:54:33.005Z,101473.91
2023-05-04T18:56:59.797Z,101476.03
2023-05-04T18:59:26.848Z,101478.50
2023-05-04T19:01:53.543Z,101486.91
2023-05-04T19:04:20.375Z,101490.00
2023-05-04T19:06:47.718Z,101484.47
2023-05-04T19:09:14.788Z,101488.31
2023-05-04T19:11:41.634Z,101494.63
2023-05-04T19:14:08.319Z,101478.75
2023-05-04T19:16:35.072Z,101493.81
2023-05-04T19:19:02.511Z,101487.94
2023-05-04T19:21:29.314Z,101495.63
2023-05-04T19:23:56.106Z,101500.44
2023-05-04T19:26:23.389Z,101489.78
2023-05-04T19:28:50.270Z,101502.97
2023-05-04T19:31:16.947Z,101494.97
2023-05-04T19:33:48.576Z,101496.06
2023-05-04T19:36:16.809Z,101495.47
2023-05-04T19:38:43.738Z,101498.56
2023-05-04T19:41:10.436Z,101499.19
2023-05-04T19:43:38.701Z,101501.41
2023-05-04T19:46:05.571Z,101501.88
2023-05-04T19:48:32.845Z,101496.13
2023-05-04T19:50:59.572Z,101499.94
2023-05-04T19:53:26.249Z,101495.91
2023-05-04T19:55:52.937Z,101495.91
2023-05-04T19:58:19.615Z,101502.16
2023-05-04T20:00:46.410Z,101492.28
2023-05-04T20:03:12.924Z,101500.69
2023-05-04T20:05:39.732Z,101493.34
2023-05-04T20:08:06.418Z,101494.03
2023-05-04T20:10:32.920Z,101486.84
2023-05-04T20:12:59.551Z,101484.13
2023-05-04T20:15:26.060Z,101491.50
2023-05-04T20:17:52.773Z,101494.66
2023-05-04T20:20:21.392Z,101490.88
2023-05-04T20:22:51.925Z,101488.19
2023-05-04T20:25:19.680Z,101492.09
2023-05-04T20:27:48.330Z,101485.00
2023-05-04T20:30:15.269Z,101483.94
2023-05-04T20:32:43.947Z,101486.31
2023-05-04T20:35:10.710Z,101479.19
2023-05-04T20:37:37.221Z,101490.06
2023-05-04T20:40:04.012Z,101482.28
2023-05-04T20:42:30.565Z,101491.47
2023-05-04T20:44:57.217Z,101480.16
2023-05-04T20:47:23.716Z,101479.06
2023-05-04T20:49:50.214Z,101465.72
2023-05-04T20:52:16.728Z,101472.63
2023-05-04T20:54:43.224Z,101475.88
2023-05-04T20:57:09.736Z,101478.16
2023-05-04T20:59:36.356Z,101467.91
2023-05-04T21:02:02.888Z,101460.97
2023-05-04T21:04:29.334Z,101459.13
2023-05-04T21:06:57.032Z,101460.63
2023-05-04T21:09:23.536Z,101446.69
2023-05-04T21:11:50.401Z,101452.47
2023-05-04T21:14:16.954Z,101465.16
2023-05-04T21:16:43.395Z,101460.75
2023-05-04T21:19:09.983Z,101460.47
2023-05-04T21:21:40.548Z,101460.41
2023-05-04T21:24:13.346Z,101460.19
2023-05-04T21:26:41.154Z,101465.19
2023-05-04T21:29:12.743Z,101459.06
2023-05-04T21:31:40.102Z,101455.44
2023-05-04T21:34:06.889Z,101451.97
2023-05-04T21:36:33.383Z,101448.44
2023-05-04T21:39:00.064Z,101450.88
2023-05-04T21:41:26.869Z,101446.50
2023-05-04T21:43:53.360Z,101453.13
2023-05-04T21:46:19.824Z,101458.09
2023-05-04T21:48:46.673Z,101458.97
2023-05-04T21:51:13.128Z,101456.25
2023-05-04T21:53:42.727Z,101459.88
2023-05-04T21:56:09.611Z,101464.06
2023-05-04T21:58:39.429Z,101462.41
2023-05-04T22:01:07.639Z,101443.31
2023-05-04T22:03:34.970Z,101464.06
2023-05-04T22:06:01.865Z,101459.66
2023-05-04T22:08:29.016Z,101458.81
2023-05-04T22:10:58.441Z,101457.94
2023-05-04T22:13:25.754Z,101456.97
2023-05-04T22:15:53.337Z,101461.22
2023-05-04T22:18:20.822Z,101457.81
2023-05-04T22:20:47.682Z,101466.13
2023-05-04T22:23:14.573Z,101461.94
2023-05-04T22:25:41.277Z,101457.06
2023-05-04T22:28:07.968Z,101459.59
2023-05-04T22:30:34.769Z,101467.28
2023-05-04T22:33:01.768Z,101457.06
2023-05-04T22:35:28.612Z,101456.09
2023-05-04T22:37:55.368Z,101459.41
2023-05-04T22:40:22.475Z,101465.25
2023-05-04T22:42:49.232Z,101464.28
2023-05-04T22:45:17.802Z,101459.97
2023-05-04T22:47:45.369Z,101459.09
2023-05-04T22:50:12.058Z,101461.47
2023-05-04T22:52:39.325Z,101457.97
2023-05-04T22:55:08.034Z,101456.28
2023-05-04T22:57:35.083Z,101458.66
2023-05-04T23:00:02.147Z,101465.28
2023-05-04T23:02:29.289Z,101455.91
2023-05-04T23:04:56.920Z,101460.09
2023-05-04T23:07:23.975Z,101460.78
2023-05-04T23:09:50.709Z,101462.19
2023-05-04T23:12:17.573Z,101453.59
2023-05-04T23:14:44.263Z,101453.59
2023-05-04T23:17:10.967Z,101458.56
2023-05-04T23:19:37.696Z,101455.91
2023-05-04T23:22:04.402Z,101458.38
2023-05-04T23:24:30.966Z,101456.53
2023-05-04T23:26:58.678Z,101462.94
2023-05-04T23:29:25.412Z,101457.97
2023-05-04T23:31:53.168Z,101448.63
2023-05-04T23:34:19.831Z,101456.13
2023-05-04T23:36:46.369Z,101447.38
2023-05-04T23:39:12.860Z,101448.94
2023-05-04T23:41:39.340Z,101441.09
2023-05-04T23:44:05.844Z,101450.28
2023-05-04T23:46:32.317Z,101446.75
2023-05-04T23:48:58.792Z,101449.13
2023-05-04T23:51:25.415Z,101442.00
2023-05-04T23:53:51.932Z,101440.06
2023-05-04T23:56:18.440Z,101438.97
2023-05-04T23:58:44.968Z,101438.84
